Victory, Vermont
Current Conditions -  °F | °C
As of 2:15 PM on Thursday 30 Oct 2014 (Local Time) from KCDA Reporting Station
Overcast Overcast  
Wind Chill:   Ceiling: 3200
Heat Index:   Visibility: 10mi
Dew Point:   Wind: 8mph
Humidity: 60%   Direction: 260°W
Pressure: 29.93"   Gusts: NA
Location:  44.5627°N, 71.7775°W
Report Text: KCDA 301815Z AUTO 26007KT 210V280 10SM OVC032 07/00 A2993 RMK AO2 T00721002
Loading
Personal Weather Stations






























Interactive Weather Map
Tropical Storm Tracking
New forecast layout! Learn more

10-Day Weather Forecast

Advertisements
Track Severe Weather on mobile